sensor_id;sensor_type;location;lat;lon;timestamp;temperature;humidity
68943;DHT22;60852;52.190;4.422;2022-07-17T00:00:39;16.66;67.30
68943;DHT22;60852;52.190;4.422;2022-07-17T00:03:11;16.67;67.28
68943;DHT22;60852;52.190;4.422;2022-07-17T00:05:37;16.69;67.42
68943;DHT22;60852;52.190;4.422;2022-07-17T00:08:06;16.69;67.23
68943;DHT22;60852;52.190;4.422;2022-07-17T00:13:02;16.43;68.22
68943;DHT22;60852;52.190;4.422;2022-07-17T00:15:28;16.51;68.13
68943;DHT22;60852;52.190;4.422;2022-07-17T00:17:54;16.57;67.70
68943;DHT22;60852;52.190;4.422;2022-07-17T00:20:20;16.62;67.57
68943;DHT22;60852;52.190;4.422;2022-07-17T00:22:46;16.59;67.56
68943;DHT22;60852;52.190;4.422;2022-07-17T00:25:12;16.56;67.58
68943;DHT22;60852;52.190;4.422;2022-07-17T00:27:39;16.52;67.58
68943;DHT22;60852;52.190;4.422;2022-07-17T00:30:05;16.51;67.50
68943;DHT22;60852;52.190;4.422;2022-07-17T00:32:31;16.49;67.63
68943;DHT22;60852;52.190;4.422;2022-07-17T00:34:57;16.52;67.77
68943;DHT22;60852;52.190;4.422;2022-07-17T00:37:22;16.46;68.09
68943;DHT22;60852;52.190;4.422;2022-07-17T00:39:48;16.49;68.00
68943;DHT22;60852;52.190;4.422;2022-07-17T00:42:15;16.46;68.06
68943;DHT22;60852;52.190;4.422;2022-07-17T00:44:42;16.43;68.04
68943;DHT22;60852;52.190;4.422;2022-07-17T00:47:17;16.45;67.47
68943;DHT22;60852;52.190;4.422;2022-07-17T00:49:44;16.42;67.63
68943;DHT22;60852;52.190;4.422;2022-07-17T00:52:12;16.43;67.96
68943;DHT22;60852;52.190;4.422;2022-07-17T00:54:39;16.41;68.23
68943;DHT22;60852;52.190;4.422;2022-07-17T00:57:07;16.39;68.28
68943;DHT22;60852;52.190;4.422;2022-07-17T00:59:33;16.41;68.39
68943;DHT22;60852;52.190;4.422;2022-07-17T01:02:02;16.39;68.54
68943;DHT22;60852;52.190;4.422;2022-07-17T01:04:28;16.42;68.58
68943;DHT22;60852;52.190;4.422;2022-07-17T01:06:53;16.33;68.75
68943;DHT22;60852;52.190;4.422;2022-07-17T01:09:19;16.38;68.68
68943;DHT22;60852;52.190;4.422;2022-07-17T01:11:44;16.41;68.49
68943;DHT22;60852;52.190;4.422;2022-07-17T01:14:10;16.35;68.63
68943;DHT22;60852;52.190;4.422;2022-07-17T01:16:36;16.41;68.29
68943;DHT22;60852;52.190;4.422;2022-07-17T01:19:02;16.42;68.04
68943;DHT22;60852;52.190;4.422;2022-07-17T01:21:40;16.41;68.00
68943;DHT22;60852;52.190;4.422;2022-07-17T01:24:06;16.41;68.10
68943;DHT22;60852;52.190;4.422;2022-07-17T01:26:31;16.36;68.07
68943;DHT22;60852;52.190;4.422;2022-07-17T01:28:57;16.33;68.28
68943;DHT22;60852;52.190;4.422;2022-07-17T01:31:22;16.28;68.82
68943;DHT22;60852;52.190;4.422;2022-07-17T01:33:48;16.28;69.17
68943;DHT22;60852;52.190;4.422;2022-07-17T01:36:14;16.23;69.22
68943;DHT22;60852;52.190;4.422;2022-07-17T01:38:39;16.28;68.89
68943;DHT22;60852;52.190;4.422;2022-07-17T01:41:05;16.28;68.96
68943;DHT22;60852;52.190;4.422;2022-07-17T01:43:30;16.23;68.89
68943;DHT22;60852;52.190;4.422;2022-07-17T01:45:56;16.23;68.59
68943;DHT22;60852;52.190;4.422;2022-07-17T01:48:27;16.26;68.70
68943;DHT22;60852;52.190;4.422;2022-07-17T01:50:53;16.18;69.14
68943;DHT22;60852;52.190;4.422;2022-07-17T01:53:19;16.16;69.02
68943;DHT22;60852;52.190;4.422;2022-07-17T01:55:45;16.09;69.58
68943;DHT22;60852;52.190;4.422;2022-07-17T01:58:12;16.00;69.76
68943;DHT22;60852;52.190;4.422;2022-07-17T02:00:37;15.95;69.87
68943;DHT22;60852;52.190;4.422;2022-07-17T02:03:03;15.88;70.18
68943;DHT22;60852;52.190;4.422;2022-07-17T02:05:28;15.83;70.54
68943;DHT22;60852;52.190;4.422;2022-07-17T02:07:54;15.81;70.98
68943;DHT22;60852;52.190;4.422;2022-07-17T02:10:19;15.80;71.06
68943;DHT22;60852;52.190;4.422;2022-07-17T02:12:45;15.88;71.16
68943;DHT22;60852;52.190;4.422;2022-07-17T02:15:11;15.93;71.14
68943;DHT22;60852;52.190;4.422;2022-07-17T02:17:38;15.91;70.70
68943;DHT22;60852;52.190;4.422;2022-07-17T02:20:04;15.93;70.46
68943;DHT22;60852;52.190;4.422;2022-07-17T02:22:31;15.90;70.55
68943;DHT22;60852;52.190;4.422;2022-07-17T02:24:56;15.95;70.50
68943;DHT22;60852;52.190;4.422;2022-07-17T02:27:22;15.95;70.37
68943;DHT22;60852;52.190;4.422;2022-07-17T02:29:47;15.98;70.51
68943;DHT22;60852;52.190;4.422;2022-07-17T02:32:12;15.95;70.19
68943;DHT22;60852;52.190;4.422;2022-07-17T02:34:38;15.90;70.60
68943;DHT22;60852;52.190;4.422;2022-07-17T02:37:03;15.85;71.00
68943;DHT22;60852;52.190;4.422;2022-07-17T02:39:29;15.80;71.30
68943;DHT22;60852;52.190;4.422;2022-07-17T02:41:54;15.83;71.46
68943;DHT22;60852;52.190;4.422;2022-07-17T02:44:19;15.88;71.43
68943;DHT22;60852;52.190;4.422;2022-07-17T02:46:45;15.81;71.18
68943;DHT22;60852;52.190;4.422;2022-07-17T02:49:10;15.74;71.65
68943;DHT22;60852;52.190;4.422;2022-07-17T02:51:35;15.61;71.92
68943;DHT22;60852;52.190;4.422;2022-07-17T02:54:01;15.57;72.07
68943;DHT22;60852;52.190;4.422;2022-07-17T02:56:26;15.54;72.21
68943;DHT22;60852;52.190;4.422;2022-07-17T02:58:52;15.51;72.47
68943;DHT22;60852;52.190;4.422;2022-07-17T03:01:17;15.46;72.50
68943;DHT22;60852;52.190;4.422;2022-07-17T03:03:43;15.44;71.93
68943;DHT22;60852;52.190;4.422;2022-07-17T03:06:08;15.47;71.24
68943;DHT22;60852;52.190;4.422;2022-07-17T03:08:33;15.47;70.89
68943;DHT22;60852;52.190;4.422;2022-07-17T03:10:59;15.49;70.74
68943;DHT22;60852;52.190;4.422;2022-07-17T03:13:24;15.44;70.76
68943;DHT22;60852;52.190;4.422;2022-07-17T03:15:50;15.44;70.66
68943;DHT22;60852;52.190;4.422;2022-07-17T03:18:15;15.46;70.59
68943;DHT22;60852;52.190;4.422;2022-07-17T03:20:41;15.44;70.49
68943;DHT22;60852;52.190;4.422;2022-07-17T03:23:06;15.44;70.24
68943;DHT22;60852;52.190;4.422;2022-07-17T03:25:32;15.44;70.25
68943;DHT22;60852;52.190;4.422;2022-07-17T03:27:57;15.39;70.37
68943;DHT22;60852;52.190;4.422;2022-07-17T03:30:22;15.23;71.48
68943;DHT22;60852;52.190;4.422;2022-07-17T03:32:48;15.15;72.14
68943;DHT22;60852;52.190;4.422;2022-07-17T03:35:13;15.13;72.65
68943;DHT22;60852;52.190;4.422;2022-07-17T03:37:39;15.15;72.42
68943;DHT22;60852;52.190;4.422;2022-07-17T03:40:06;15.25;72.11
68943;DHT22;60852;52.190;4.422;2022-07-17T03:42:31;15.22;72.21
68943;DHT22;60852;52.190;4.422;2022-07-17T03:44:57;15.22;71.80
68943;DHT22;60852;52.190;4.422;2022-07-17T03:47:22;15.19;71.69
68943;DHT22;60852;52.190;4.422;2022-07-17T03:49:47;15.20;71.60
68943;DHT22;60852;52.190;4.422;2022-07-17T03:52:13;15.23;71.39
68943;DHT22;60852;52.190;4.422;2022-07-17T03:54:38;15.25;71.03
68943;DHT22;60852;52.190;4.422;2022-07-17T03:57:04;15.20;71.09
68943;DHT22;60852;52.190;4.422;2022-07-17T03:59:29;15.22;71.21
68943;DHT22;60852;52.190;4.422;2022-07-17T04:01:55;15.25;71.46
68943;DHT22;60852;52.190;4.422;2022-07-17T04:04:21;15.27;71.48
68943;DHT22;60852;52.190;4.422;2022-07-17T04:06:46;15.27;71.61
68943;DHT22;60852;52.190;4.422;2022-07-17T04:09:12;15.19;71.87
68943;DHT22;60852;52.190;4.422;2022-07-17T04:11:37;15.16;72.10
68943;DHT22;60852;52.190;4.422;2022-07-17T04:14:03;15.12;72.41
68943;DHT22;60852;52.190;4.422;2022-07-17T04:16:28;15.15;72.25
68943;DHT22;60852;52.190;4.422;2022-07-17T04:18:54;15.16;72.43
68943;DHT22;60852;52.190;4.422;2022-07-17T04:21:19;15.18;72.37
68943;DHT22;60852;52.190;4.422;2022-07-17T04:23:44;15.22;72.31
68943;DHT22;60852;52.190;4.422;2022-07-17T04:26:10;15.30;72.47
68943;DHT22;60852;52.190;4.422;2022-07-17T04:28:36;16.01;70.69
68943;DHT22;60852;52.190;4.422;2022-07-17T04:31:02;16.63;68.95
68943;DHT22;60852;52.190;4.422;2022-07-17T04:33:27;16.94;67.82
68943;DHT22;60852;52.190;4.422;2022-07-17T04:35:53;16.73;68.56
68943;DHT22;60852;52.190;4.422;2022-07-17T04:38:18;16.52;69.36
68943;DHT22;60852;52.190;4.422;2022-07-17T04:40:44;16.46;69.60
68943;DHT22;60852;52.190;4.422;2022-07-17T04:43:10;16.42;70.31
68943;DHT22;60852;52.190;4.422;2022-07-17T04:45:35;16.39;70.92
68943;DHT22;60852;52.190;4.422;2022-07-17T04:48:01;16.36;70.95
68943;DHT22;60852;52.190;4.422;2022-07-17T04:50:27;16.33;71.29
68943;DHT22;60852;52.190;4.422;2022-07-17T04:52:53;16.32;71.44
68943;DHT22;60852;52.190;4.422;2022-07-17T04:55:19;16.38;71.44
68943;DHT22;60852;52.190;4.422;2022-07-17T04:57:44;16.35;71.60
68943;DHT22;60852;52.190;4.422;2022-07-17T05:00:10;16.30;71.82
68943;DHT22;60852;52.190;4.422;2022-07-17T05:02:37;16.28;71.97
68943;DHT22;60852;52.190;4.422;2022-07-17T05:05:03;16.25;72.06
68943;DHT22;60852;52.190;4.422;2022-07-17T05:07:29;16.26;72.11
68943;DHT22;60852;52.190;4.422;2022-07-17T05:09:54;16.23;72.03
68943;DHT22;60852;52.190;4.422;2022-07-17T05:12:20;16.83;71.15
68943;DHT22;60852;52.190;4.422;2022-07-17T05:14:45;17.79;67.49
68943;DHT22;60852;52.190;4.422;2022-07-17T05:17:11;18.72;64.27
68943;DHT22;60852;52.190;4.422;2022-07-17T05:19:37;19.64;61.55
68943;DHT22;60852;52.190;4.422;2022-07-17T05:22:03;20.32;59.15
68943;DHT22;60852;52.190;4.422;2022-07-17T05:24:29;20.76;57.47
68943;DHT22;60852;52.190;4.422;2022-07-17T05:26:54;20.88;56.66
68943;DHT22;60852;52.190;4.422;2022-07-17T05:29:20;20.72;56.76
68943;DHT22;60852;52.190;4.422;2022-07-17T05:31:45;21.12;55.48
68943;DHT22;60852;52.190;4.422;2022-07-17T05:34:11;21.75;53.81
68943;DHT22;60852;52.190;4.422;2022-07-17T05:36:37;22.23;52.47
68943;DHT22;60852;52.190;4.422;2022-07-17T05:39:03;22.72;51.18
68943;DHT22;60852;52.190;4.422;2022-07-17T05:41:28;23.06;50.51
68943;DHT22;60852;52.190;4.422;2022-07-17T05:43:54;23.49;49.09
68943;DHT22;60852;52.190;4.422;2022-07-17T05:46:19;23.82;48.01
68943;DHT22;60852;52.190;4.422;2022-07-17T05:48:45;23.81;48.06
68943;DHT22;60852;52.190;4.422;2022-07-17T05:51:10;23.98;47.62
68943;DHT22;60852;52.190;4.422;2022-07-17T05:53:35;23.81;48.30
68943;DHT22;60852;52.190;4.422;2022-07-17T05:56:01;23.75;48.50
68943;DHT22;60852;52.190;4.422;2022-07-17T05:58:26;24.01;48.13
68943;DHT22;60852;52.190;4.422;2022-07-17T06:00:52;24.15;46.16
68943;DHT22;60852;52.190;4.422;2022-07-17T06:03:18;24.65;45.75
68943;DHT22;60852;52.190;4.422;2022-07-17T06:05:44;25.07;44.02
68943;DHT22;60852;52.190;4.422;2022-07-17T06:08:09;25.57;42.91
68943;DHT22;60852;52.190;4.422;2022-07-17T06:10:35;25.90;41.56
68943;DHT22;60852;52.190;4.422;2022-07-17T06:13:00;26.07;41.32
68943;DHT22;60852;52.190;4.422;2022-07-17T06:15:26;26.00;41.43
68943;DHT22;60852;52.190;4.422;2022-07-17T06:17:51;26.07;40.56
68943;DHT22;60852;52.190;4.422;2022-07-17T06:20:18;25.84;40.88
68943;DHT22;60852;52.190;4.422;2022-07-17T06:22:45;25.72;41.15
68943;DHT22;60852;52.190;4.422;2022-07-17T06:25:11;25.38;41.40
68943;DHT22;60852;52.190;4.422;2022-07-17T06:27:41;24.41;43.44
68943;DHT22;60852;52.190;4.422;2022-07-17T06:30:09;23.56;45.22
68943;DHT22;60852;52.190;4.422;2022-07-17T06:32:35;22.88;47.31
68943;DHT22;60852;52.190;4.422;2022-07-17T06:35:00;22.30;49.09
68943;DHT22;60852;52.190;4.422;2022-07-17T06:37:26;21.63;50.96
68943;DHT22;60852;52.190;4.422;2022-07-17T06:39:51;21.37;51.44
68943;DHT22;60852;52.190;4.422;2022-07-17T06:42:16;21.27;51.56
68943;DHT22;60852;52.190;4.422;2022-07-17T06:44:42;21.14;51.91
68943;DHT22;60852;52.190;4.422;2022-07-17T06:47:07;20.91;51.86
68943;DHT22;60852;52.190;4.422;2022-07-17T06:49:33;20.70;52.29
68943;DHT22;60852;52.190;4.422;2022-07-17T06:51:58;20.39;52.74
68943;DHT22;60852;52.190;4.422;2022-07-17T06:54:25;20.32;53.19
68943;DHT22;60852;52.190;4.422;2022-07-17T06:56:52;20.32;53.38
68943;DHT22;60852;52.190;4.422;2022-07-17T06:59:18;20.29;53.68
68943;DHT22;60852;52.190;4.422;2022-07-17T07:01:43;20.25;53.79
68943;DHT22;60852;52.190;4.422;2022-07-17T07:04:08;20.09;54.34
68943;DHT22;60852;52.190;4.422;2022-07-17T07:06:34;20.07;54.71
68943;DHT22;60852;52.190;4.422;2022-07-17T07:08:59;20.07;54.65
68943;DHT22;60852;52.190;4.422;2022-07-17T07:11:25;19.98;55.09
68943;DHT22;60852;52.190;4.422;2022-07-17T07:13:50;20.08;54.96
68943;DHT22;60852;52.190;4.422;2022-07-17T07:16:16;20.14;54.77
68943;DHT22;60852;52.190;4.422;2022-07-17T07:18:42;20.19;53.91
68943;DHT22;60852;52.190;4.422;2022-07-17T07:21:07;20.21;53.07
68943;DHT22;60852;52.190;4.422;2022-07-17T07:23:33;20.15;53.77
68943;DHT22;60852;52.190;4.422;2022-07-17T07:25:58;20.22;54.32
68943;DHT22;60852;52.190;4.422;2022-07-17T07:28:24;20.29;53.95
68943;DHT22;60852;52.190;4.422;2022-07-17T07:30:49;20.39;53.68
68943;DHT22;60852;52.190;4.422;2022-07-17T07:33:15;20.46;53.79
68943;DHT22;60852;52.190;4.422;2022-07-17T07:35:42;20.57;53.47
68943;DHT22;60852;52.190;4.422;2022-07-17T07:38:08;20.63;51.80
68943;DHT22;60852;52.190;4.422;2022-07-17T07:40:35;20.67;51.53
68943;DHT22;60852;52.190;4.422;2022-07-17T07:43:01;20.69;51.55
68943;DHT22;60852;52.190;4.422;2022-07-17T07:45:26;20.65;51.57
68943;DHT22;60852;52.190;4.422;2022-07-17T07:47:52;20.72;51.57
68943;DHT22;60852;52.190;4.422;2022-07-17T07:50:22;20.69;51.10
68943;DHT22;60852;52.190;4.422;2022-07-17T07:52:47;20.67;50.18
68943;DHT22;60852;52.190;4.422;2022-07-17T07:55:13;20.70;50.46
68943;DHT22;60852;52.190;4.422;2022-07-17T07:57:39;20.77;50.15
68943;DHT22;60852;52.190;4.422;2022-07-17T08:00:06;20.83;50.61
68943;DHT22;60852;52.190;4.422;2022-07-17T08:02:32;20.87;50.97
68943;DHT22;60852;52.190;4.422;2022-07-17T08:04:57;20.83;51.06
68943;DHT22;60852;52.190;4.422;2022-07-17T08:07:25;20.93;50.66
68943;DHT22;60852;52.190;4.422;2022-07-17T08:09:52;20.87;51.00
68943;DHT22;60852;52.190;4.422;2022-07-17T08:12:17;20.93;50.71
68943;DHT22;60852;52.190;4.422;2022-07-17T08:14:43;21.07;49.88
68943;DHT22;60852;52.190;4.422;2022-07-17T08:17:08;21.14;49.23
68943;DHT22;60852;52.190;4.422;2022-07-17T08:19:34;21.15;48.93
68943;DHT22;60852;52.190;4.422;2022-07-17T08:22:00;21.24;48.64
68943;DHT22;60852;52.190;4.422;2022-07-17T08:24:25;21.31;48.21
68943;DHT22;60852;52.190;4.422;2022-07-17T08:26:50;21.37;47.79
68943;DHT22;60852;52.190;4.422;2022-07-17T08:29:16;21.46;48.60
68943;DHT22;60852;52.190;4.422;2022-07-17T08:31:41;21.51;49.15
68943;DHT22;60852;52.190;4.422;2022-07-17T08:34:07;21.59;47.66
68943;DHT22;60852;52.190;4.422;2022-07-17T08:36:32;21.62;46.88
68943;DHT22;60852;52.190;4.422;2022-07-17T08:38:58;21.41;47.41
68943;DHT22;60852;52.190;4.422;2022-07-17T08:41:24;21.45;48.61
68943;DHT22;60852;52.190;4.422;2022-07-17T08:43:49;21.59;49.06
68943;DHT22;60852;52.190;4.422;2022-07-17T08:46:17;21.58;49.05
68943;DHT22;60852;52.190;4.422;2022-07-17T08:48:45;21.71;49.53
68943;DHT22;60852;52.190;4.422;2022-07-17T08:51:11;21.72;48.07
68943;DHT22;60852;52.190;4.422;2022-07-17T08:53:38;21.78;48.48
68943;DHT22;60852;52.190;4.422;2022-07-17T08:56:04;21.69;48.90
68943;DHT22;60852;52.190;4.422;2022-07-17T08:58:29;21.76;49.01
68943;DHT22;60852;52.190;4.422;2022-07-17T09:00:55;21.93;48.36
68943;DHT22;60852;52.190;4.422;2022-07-17T09:03:20;22.09;47.85
68943;DHT22;60852;52.190;4.422;2022-07-17T09:05:48;22.13;47.86
68943;DHT22;60852;52.190;4.422;2022-07-17T09:08:22;22.17;48.18
68943;DHT22;60852;52.190;4.422;2022-07-17T09:10:51;22.23;46.94
68943;DHT22;60852;52.190;4.422;2022-07-17T09:13:23;22.23;47.54
68943;DHT22;60852;52.190;4.422;2022-07-17T09:15:52;22.30;46.58
68943;DHT22;60852;52.190;4.422;2022-07-17T09:18:18;22.37;46.98
68943;DHT22;60852;52.190;4.422;2022-07-17T09:20:50;22.39;47.06
68943;DHT22;60852;52.190;4.422;2022-07-17T09:23:18;22.43;47.22
68943;DHT22;60852;52.190;4.422;2022-07-17T09:25:46;22.47;46.70
68943;DHT22;60852;52.190;4.422;2022-07-17T09:28:14;22.40;47.63
68943;DHT22;60852;52.190;4.422;2022-07-17T09:30:43;22.48;46.76
68943;DHT22;60852;52.190;4.422;2022-07-17T09:33:18;22.51;46.30
68943;DHT22;60852;52.190;4.422;2022-07-17T09:35:52;22.58;46.79
68943;DHT22;60852;52.190;4.422;2022-07-17T09:38:29;22.72;46.41
68943;DHT22;60852;52.190;4.422;2022-07-17T09:41:09;22.84;45.79
68943;DHT22;60852;52.190;4.422;2022-07-17T09:43:59;22.84;47.12
68943;DHT22;60852;52.190;4.422;2022-07-17T09:46:30;22.99;46.71
68943;DHT22;60852;52.190;4.422;2022-07-17T09:49:02;23.20;45.41
68943;DHT22;60852;52.190;4.422;2022-07-17T09:51:33;23.43;44.22
68943;DHT22;60852;52.190;4.422;2022-07-17T09:54:01;23.54;43.04
68943;DHT22;60852;52.190;4.422;2022-07-17T09:56:30;23.24;42.50
68943;DHT22;60852;52.190;4.422;2022-07-17T09:59:03;23.18;43.21
68943;DHT22;60852;52.190;4.422;2022-07-17T10:01:29;22.94;43.83
68943;DHT22;60852;52.190;4.422;2022-07-17T10:03:55;23.20;42.98
68943;DHT22;60852;52.190;4.422;2022-07-17T10:06:25;23.85;41.49
68943;DHT22;60852;52.190;4.422;2022-07-17T10:08:52;24.47;40.03
68943;DHT22;60852;52.190;4.422;2022-07-17T10:11:24;25.11;38.73
68943;DHT22;60852;52.190;4.422;2022-07-17T10:13:52;25.27;39.00
68943;DHT22;60852;52.190;4.422;2022-07-17T10:16:30;25.39;38.43
68943;DHT22;60852;52.190;4.422;2022-07-17T10:18:56;25.90;38.31
68943;DHT22;60852;52.190;4.422;2022-07-17T10:21:24;26.25;37.11
68943;DHT22;60852;52.190;4.422;2022-07-17T10:26:48;26.74;36.32
68943;DHT22;60852;52.190;4.422;2022-07-17T10:29:36;27.33;36.24
68943;DHT22;60852;52.190;4.422;2022-07-17T10:32:15;27.71;34.98
68943;DHT22;60852;52.190;4.422;2022-07-17T10:34:52;27.76;35.52
68943;DHT22;60852;52.190;4.422;2022-07-17T10:37:40;27.35;36.70
68943;DHT22;60852;52.190;4.422;2022-07-17T10:50:39;27.59;35.68
68943;DHT22;60852;52.190;4.422;2022-07-17T10:53:23;27.91;35.71
68943;DHT22;60852;52.190;4.422;2022-07-17T10:56:00;27.33;35.93
68943;DHT22;60852;52.190;4.422;2022-07-17T10:58:35;27.33;37.15
68943;DHT22;60852;52.190;4.422;2022-07-17T11:03:35;27.01;37.19
68943;DHT22;60852;52.190;4.422;2022-07-17T11:06:12;26.70;37.44
68943;DHT22;60852;52.190;4.422;2022-07-17T11:08:49;26.70;37.65
68943;DHT22;60852;52.190;4.422;2022-07-17T11:11:18;26.68;37.54
68943;DHT22;60852;52.190;4.422;2022-07-17T11:13:44;26.65;37.05
68943;DHT22;60852;52.190;4.422;2022-07-17T11:16:10;26.77;37.18
68943;DHT22;60852;52.190;4.422;2022-07-17T11:18:35;26.85;36.00
68943;DHT22;60852;52.190;4.422;2022-07-17T11:21:03;26.60;37.84
68943;DHT22;60852;52.190;4.422;2022-07-17T11:23:32;26.65;37.28
68943;DHT22;60852;52.190;4.422;2022-07-17T11:26:01;26.71;36.92
68943;DHT22;60852;52.190;4.422;2022-07-17T11:28:37;26.73;36.30
68943;DHT22;60852;52.190;4.422;2022-07-17T11:31:18;26.58;36.73
68943;DHT22;60852;52.190;4.422;2022-07-17T11:34:05;26.56;37.06
68943;DHT22;60852;52.190;4.422;2022-07-17T11:36:34;26.58;36.67
68943;DHT22;60852;52.190;4.422;2022-07-17T11:39:06;26.70;36.86
68943;DHT22;60852;52.190;4.422;2022-07-17T11:41:34;26.71;37.96
68943;DHT22;60852;52.190;4.422;2022-07-17T11:44:01;26.51;40.78
68943;DHT22;60852;52.190;4.422;2022-07-17T11:46:29;26.30;41.06
68943;DHT22;60852;52.190;4.422;2022-07-17T11:48:55;26.16;41.06
68943;DHT22;60852;52.190;4.422;2022-07-17T11:51:21;26.05;41.85
68943;DHT22;60852;52.190;4.422;2022-07-17T11:53:46;26.12;41.80
68943;DHT22;60852;52.190;4.422;2022-07-17T11:56:21;26.13;41.47
68943;DHT22;60852;52.190;4.422;2022-07-17T11:58:47;26.25;40.85
68943;DHT22;60852;52.190;4.422;2022-07-17T12:01:14;26.20;41.13
68943;DHT22;60852;52.190;4.422;2022-07-17T12:03:40;25.84;41.73
68943;DHT22;60852;52.190;4.422;2022-07-17T12:06:06;25.48;42.47
68943;DHT22;60852;52.190;4.422;2022-07-17T12:08:33;25.23;42.54
68943;DHT22;60852;52.190;4.422;2022-07-17T12:11:00;25.39;42.82
68943;DHT22;60852;52.190;4.422;2022-07-17T12:13:40;25.51;42.07
68943;DHT22;60852;52.190;4.422;2022-07-17T12:16:20;25.67;41.27
68943;DHT22;60852;52.190;4.422;2022-07-17T12:19:05;25.88;41.14
68943;DHT22;60852;52.190;4.422;2022-07-17T12:21:52;26.05;42.15
68943;DHT22;60852;52.190;4.422;2022-07-17T12:24:42;26.09;41.31
68943;DHT22;60852;52.190;4.422;2022-07-17T12:27:16;25.99;41.29
68943;DHT22;60852;52.190;4.422;2022-07-17T12:29:43;25.93;42.17
68943;DHT22;60852;52.190;4.422;2022-07-17T12:34:41;26.17;41.67
68943;DHT22;60852;52.190;4.422;2022-07-17T12:37:20;26.32;41.37
68943;DHT22;60852;52.190;4.422;2022-07-17T12:39:46;26.22;40.64
68943;DHT22;60852;52.190;4.422;2022-07-17T12:42:14;26.06;41.73
68943;DHT22;60852;52.190;4.422;2022-07-17T12:44:39;25.93;41.54
68943;DHT22;60852;52.190;4.422;2022-07-17T12:47:07;25.92;42.90
68943;DHT22;60852;52.190;4.422;2022-07-17T12:49:33;25.88;42.33
68943;DHT22;60852;52.190;4.422;2022-07-17T12:51:59;25.98;42.97
68943;DHT22;60852;52.190;4.422;2022-07-17T12:54:24;25.90;43.03
68943;DHT22;60852;52.190;4.422;2022-07-17T12:56:50;25.89;43.79
68943;DHT22;60852;52.190;4.422;2022-07-17T12:59:15;26.00;43.58
68943;DHT22;60852;52.190;4.422;2022-07-17T13:01:41;25.98;43.71
68943;DHT22;60852;52.190;4.422;2022-07-17T13:04:07;25.90;42.86
68943;DHT22;60852;52.190;4.422;2022-07-17T13:06:32;25.82;43.09
68943;DHT22;60852;52.190;4.422;2022-07-17T13:08:59;25.86;43.11
68943;DHT22;60852;52.190;4.422;2022-07-17T13:11:25;25.95;43.04
68943;DHT22;60852;52.190;4.422;2022-07-17T13:13:51;26.12;43.76
68943;DHT22;60852;52.190;4.422;2022-07-17T13:16:16;25.88;44.41
68943;DHT22;60852;52.190;4.422;2022-07-17T13:18:42;25.90;44.66
68943;DHT22;60852;52.190;4.422;2022-07-17T13:21:09;26.02;43.85
68943;DHT22;60852;52.190;4.422;2022-07-17T13:23:35;26.00;44.16
68943;DHT22;60852;52.190;4.422;2022-07-17T13:26:01;26.10;44.63
68943;DHT22;60852;52.190;4.422;2022-07-17T13:28:26;26.13;44.29
68943;DHT22;60852;52.190;4.422;2022-07-17T13:30:52;26.06;44.83
68943;DHT22;60852;52.190;4.422;2022-07-17T13:33:18;26.10;44.34
68943;DHT22;60852;52.190;4.422;2022-07-17T13:35:43;26.13;43.85
68943;DHT22;60852;52.190;4.422;2022-07-17T13:38:09;26.19;43.63
68943;DHT22;60852;52.190;4.422;2022-07-17T13:40:35;26.17;44.38
68943;DHT22;60852;52.190;4.422;2022-07-17T13:43:02;26.27;44.36
68943;DHT22;60852;52.190;4.422;2022-07-17T13:45:28;26.27;44.21
68943;DHT22;60852;52.190;4.422;2022-07-17T13:47:54;26.25;44.02
68943;DHT22;60852;52.190;4.422;2022-07-17T13:50:20;26.15;43.97
68943;DHT22;60852;52.190;4.422;2022-07-17T13:52:46;26.20;43.55
68943;DHT22;60852;52.190;4.422;2022-07-17T13:55:12;26.30;43.88
68943;DHT22;60852;52.190;4.422;2022-07-17T13:57:40;26.05;44.72
68943;DHT22;60852;52.190;4.422;2022-07-17T14:00:07;25.81;44.69
68943;DHT22;60852;52.190;4.422;2022-07-17T14:02:34;25.86;46.15
68943;DHT22;60852;52.190;4.422;2022-07-17T14:05:00;25.67;45.21
68943;DHT22;60852;52.190;4.422;2022-07-17T14:07:26;25.47;46.73
68943;DHT22;60852;52.190;4.422;2022-07-17T14:09:51;25.54;46.27
68943;DHT22;60852;52.190;4.422;2022-07-17T14:12:17;25.48;46.41
68943;DHT22;60852;52.190;4.422;2022-07-17T14:14:42;25.42;46.34
68943;DHT22;60852;52.190;4.422;2022-07-17T14:17:08;25.39;46.37
68943;DHT22;60852;52.190;4.422;2022-07-17T14:19:33;25.28;47.30
68943;DHT22;60852;52.190;4.422;2022-07-17T14:22:00;25.28;46.47
68943;DHT22;60852;52.190;4.422;2022-07-17T14:24:26;25.24;45.83
68943;DHT22;60852;52.190;4.422;2022-07-17T14:26:51;25.26;46.31
68943;DHT22;60852;52.190;4.422;2022-07-17T14:29:17;25.23;46.32
68943;DHT22;60852;52.190;4.422;2022-07-17T14:31:42;25.23;46.90
68943;DHT22;60852;52.190;4.422;2022-07-17T14:34:08;25.35;47.06
68943;DHT22;60852;52.190;4.422;2022-07-17T14:36:33;25.51;46.15
68943;DHT22;60852;52.190;4.422;2022-07-17T14:38:58;25.65;46.72
68943;DHT22;60852;52.190;4.422;2022-07-17T14:41:24;25.65;46.24
68943;DHT22;60852;52.190;4.422;2022-07-17T14:43:52;25.74;45.12
68943;DHT22;60852;52.190;4.422;2022-07-17T14:46:17;25.68;45.55
68943;DHT22;60852;52.190;4.422;2022-07-17T14:48:43;25.54;44.64
68943;DHT22;60852;52.190;4.422;2022-07-17T14:51:09;25.55;45.60
68943;DHT22;60852;52.190;4.422;2022-07-17T14:53:34;25.62;45.72
68943;DHT22;60852;52.190;4.422;2022-07-17T14:56:00;25.54;45.11
68943;DHT22;60852;52.190;4.422;2022-07-17T14:58:25;25.41;46.14
68943;DHT22;60852;52.190;4.422;2022-07-17T15:00:51;25.47;47.46
68943;DHT22;60852;52.190;4.422;2022-07-17T15:03:16;25.61;47.16
68943;DHT22;60852;52.190;4.422;2022-07-17T15:05:41;25.68;46.43
68943;DHT22;60852;52.190;4.422;2022-07-17T15:08:07;25.49;47.07
68943;DHT22;60852;52.190;4.422;2022-07-17T15:10:32;25.45;47.58
68943;DHT22;60852;52.190;4.422;2022-07-17T15:12:59;25.49;47.83
68943;DHT22;60852;52.190;4.422;2022-07-17T15:15:25;25.55;47.93
68943;DHT22;60852;52.190;4.422;2022-07-17T15:17:50;25.58;48.18
68943;DHT22;60852;52.190;4.422;2022-07-17T15:20:16;25.62;49.05
68943;DHT22;60852;52.190;4.422;2022-07-17T15:22:41;25.54;48.84
68943;DHT22;60852;52.190;4.422;2022-07-17T15:25:07;25.44;48.19
68943;DHT22;60852;52.190;4.422;2022-07-17T15:27:33;25.33;48.48
68943;DHT22;60852;52.190;4.422;2022-07-17T15:29:58;25.23;48.69
68943;DHT22;60852;52.190;4.422;2022-07-17T15:32:23;25.23;48.92
68943;DHT22;60852;52.190;4.422;2022-07-17T15:34:49;25.28;48.69
68943;DHT22;60852;52.190;4.422;2022-07-17T15:37:14;25.42;48.40
68943;DHT22;60852;52.190;4.422;2022-07-17T15:39:39;25.54;48.08
68943;DHT22;60852;52.190;4.422;2022-07-17T15:42:05;25.44;47.99
68943;DHT22;60852;52.190;4.422;2022-07-17T15:44:30;25.33;48.92
68943;DHT22;60852;52.190;4.422;2022-07-17T15:46:56;25.38;49.45
68943;DHT22;60852;52.190;4.422;2022-07-17T15:49:22;25.39;49.15